Thunder radar more information blitzortung!


Radar de pluja more information rain snow radar


Visita la nostra xarxa de llocs de meteo:

Template documentation
and downloads

And another site



No particular awareness of the weather is required.    There are no Weather-warnings

Pagina Historial Weather Underground text

Diari Resum January 26, 2016 Unitats:  Mètric    Imperial   Tant
« Previous Dia
SegĂźent Dia »
Diari Setmana Mensual Anual Personalitzada
  Maxima: Minima: Media:
Temperatura: -17.8 °C -17.8 °C -10.9 °C
Punt de rosada: -17.8 °C -19.7 °C -13.2 °C
Humitat: Humidity % 69 % 75 %
Wind Speed: 0 km/h 0 km/h 6.4 km/h
RĂ fegues de vent: 0 km/h - -
Vent:- - SE
Pression baro: 0 hPa 34899.5 hPa -
Precipitacions: 0 mm    
Historical Graphs
 
 
Dades de taula per January 26, 2016
Temps Temperatura Punt de rosada Pression baro Vent Wind Speed RĂ fegues de vent Humitat Rainfall Rate (Hourly)
-17.8 °C -17.8 °C 0 hPa Calm     Humidity % 0 mm
11:10 -11.3 °C -13.3 °C 35038.3 hPa Calm   2.6 km/h 79 % 0 mm
11:15 -11.2 °C -13.2 °C 35038.3 hPa SE 3.1 km/h 4.2 km/h 79 % 0 mm
11:20 -11.2 °C -13.1 °C 35038.3 hPa NNE 5.6 km/h 5.6 km/h 79 % 0 mm
11:25 -11.3 °C -13.2 °C 35038.3 hPa ENE 11.9 km/h 11.9 km/h 79 % 0 mm
11:30 -11.4 °C -13.3 °C 35038.3 hPa NE 9 km/h 9 km/h 79 % 0 mm
11:35 -11.4 °C -13.3 °C 35001.1 hPa NE 11.9 km/h 11.9 km/h 79 % 0 mm
11:40 -11.5 °C -13.4 °C 35001.1 hPa NNE 9 km/h 9 km/h 79 % 0 mm
11:45 -11.5 °C -13.4 °C 35001.1 hPa NE 11.9 km/h 11.9 km/h 79 % 0 mm
11:50 -11.4 °C -13.5 °C 35001.1 hPa NNE 9 km/h 9 km/h 78 % 0 mm
11:58 -11.4 °C -13.4 °C 35001.1 hPa NE 9 km/h 9 km/h 78 % 0 mm
12:03 -11.3 °C -13.3 °C 35001.1 hPa ENE 11.9 km/h 11.9 km/h 78 % 0 mm
12:13 -17.8 °C -19.7 °C 34967.2 hPa ENE 3.1 km/h 4.2 km/h 78 % 0 mm
12:18 -11.1 °C -13.2 °C 34967.2 hPa NE 6.3 km/h 6.3 km/h 78 % 0 mm
12:23 -11.2 °C -13.2 °C 34967.2 hPa ENE 15 km/h 15 km/h 78 % 0 mm
12:28 -11.1 °C -13.2 °C 34967.2 hPa NE 7.6 km/h 7.6 km/h 78 % 0 mm
12:33 -11.1 °C -13.2 °C 34967.2 hPa East 15 km/h 15 km/h 78 % 0 mm
12:38 -11.1 °C -13.3 °C 35001.1 hPa NE 11.9 km/h 11.9 km/h 77 % 0 mm
12:43 -11.1 °C -13.2 °C 35001.1 hPa NNE 9 km/h 9 km/h 77 % 0 mm
12:48 -11 °C -13.2 °C 35001.1 hPa ENE 6 km/h 6 km/h 77 % 0 mm
12:53 -10.8 °C -13 °C 35001.1 hPa East 9 km/h 9.3 km/h 77 % 0 mm
12:58 -10.7 °C -12.8 °C 35001.1 hPa NNE 8 km/h 8 km/h 77 % 0 mm
13:03 -10.4 °C -12.6 °C 35001.1 hPa NNE 6 km/h 6 km/h 77 % 0 mm
13:08 -10.5 °C -12.8 °C 34967.2 hPa NE 9.8 km/h 9.8 km/h 76 % 0 mm
13:13 -10.6 °C -12.8 °C 34967.2 hPa NNW 6 km/h 6 km/h 76 % 0 mm
13:18 -10.4 °C -12.7 °C 34967.2 hPa North 6 km/h 6 km/h 76 % 0 mm
13:23 -10.3 °C -12.7 °C 34946.9 hPa ENE 6.3 km/h 6.3 km/h 75 % 0 mm
13:28 -10.3 °C -12.7 °C 34946.9 hPa NE 9 km/h 9 km/h 75 % 0 mm
13:33 -10.2 °C -12.6 °C 34946.9 hPa NNE 11.9 km/h 11.9 km/h 75 % 0 mm
13:43 -9.9 °C -12.4 °C 34967.2 hPa NNE 11.9 km/h 11.9 km/h 74 % 0 mm
13:48 -9.9 °C -12.4 °C 34967.2 hPa ENE 6.3 km/h 6.3 km/h 74 % 0 mm
13:53 -9.9 °C -12.4 °C 34899.5 hPa NE 6 km/h 6 km/h 74 % 0 mm
13:58 -9.9 °C -12.4 °C 34899.5 hPa NNE 9 km/h 9 km/h 74 % 0 mm
14:03 -9.9 °C -12.4 °C 34899.5 hPa NNE 15 km/h 15 km/h 74 % 0 mm
14:08 -9.8 °C -12.5 °C 34946.9 hPa NNE 11.9 km/h 11.9 km/h 73 % 0 mm
14:18 -9.8 °C -12.5 °C 34946.9 hPa ENE 11.9 km/h 11.9 km/h 73 % 0 mm
14:23 -9.7 °C -12.4 °C 34946.9 hPa NE 9.3 km/h 9.3 km/h 73 % 0 mm
14:33 -9.8 °C -12.6 °C 34946.9 hPa ENE 8.5 km/h 8.5 km/h 72 % 0 mm
14:38 -9.7 °C -12.4 °C 34946.9 hPa NNE 9.3 km/h 9.3 km/h 72 % 0 mm
14:48 -9.6 °C -12.4 °C 34946.9 hPa NE 15 km/h 15 km/h 72 % 0 mm
14:53 -9.6 °C -12.4 °C 34899.5 hPa NW 9 km/h 9 km/h 71 % 0 mm
14:58 -9.6 °C -12.4 °C 34899.5 hPa NE 9 km/h 9 km/h 71 % 0 mm
15:03 -9.5 °C -12.4 °C 34899.5 hPa NW 9.3 km/h 9.3 km/h 71 % 0 mm
15:08 -9.4 °C -12.3 °C 34946.9 hPa NE 6 km/h 6 km/h 71 % 0 mm
15:13 -9.4 °C -12.3 °C 34946.9 hPa NNE 11.9 km/h 11.9 km/h 71 % 0 mm
15:18 -9.4 °C -12.3 °C 34946.9 hPa NNE 6 km/h 6 km/h 71 % 0 mm
15:23 -9.4 °C -12.3 °C 34899.5 hPa ENE 6 km/h 6 km/h 71 % 0 mm
15:28 -9.4 °C -12.4 °C 34899.5 hPa ENE 9 km/h 9 km/h 70 % 0 mm
15:33 -9.5 °C -12.5 °C 34899.5 hPa NNE 15 km/h 15 km/h 70 % 0 mm
15:38 -9.5 °C -12.5 °C 34899.5 hPa North 11.9 km/h 11.9 km/h 70 % 0 mm
15:43 -9.5 °C -12.5 °C 34899.5 hPa NNE 11.9 km/h 11.9 km/h 70 % 0 mm
15:48 -9.4 °C -12.4 °C 34899.5 hPa NNE 8.5 km/h 8.5 km/h 70 % 0 mm
15:53 -9.4 °C -12.4 °C 34899.5 hPa NE 11.9 km/h 11.9 km/h 70 % 0 mm
15:58 -9.4 °C -12.4 °C 34899.5 hPa NNE 6.8 km/h 6.8 km/h 70 % 0 mm
16:03 -9.4 °C -12.4 °C 34899.5 hPa NNE 9.8 km/h 9.8 km/h 70 % 0 mm
16:13 -9.3 °C -12.3 °C 34899.5 hPa ENE 6 km/h 6 km/h 70 % 0 mm
16:18 -9.3 °C -12.4 °C 34899.5 hPa NNE 9.8 km/h 9.8 km/h 69 % 0 mm
16:23 -9.3 °C -12.4 °C 34899.5 hPa NNE 4.2 km/h 4.2 km/h 69 % 0 mm
16:28 -9.3 °C -12.4 °C 34899.5 hPa ENE 7.6 km/h 7.6 km/h 69 % 0 mm
16:33 -9.3 °C -12.4 °C 34899.5 hPa ENE 6 km/h 6 km/h 69 % 0 mm
16:38 -9.3 °C -12.4 °C 34899.5 hPa NW 9 km/h 9 km/h 69 % 0 mm
16:43 -9.3 °C -12.4 °C 34899.5 hPa NNE 11.9 km/h 11.9 km/h 69 % 0 mm
16:48 -9.3 °C -12.4 °C 34899.5 hPa NNW 3.1 km/h 3.1 km/h 69 % 0 mm
16:53 -9.3 °C -12.4 °C 34899.5 hPa West 6 km/h 6 km/h 69 % 0 mm
16:58 -9.3 °C -12.4 °C 34899.5 hPa NNW 6 km/h 6 km/h 69 % 0 mm
17:03 -9.2 °C -12.4 °C 34899.5 hPa ENE 3.1 km/h   69 % 0 mm
17:08 -9.3 °C -12.4 °C 34899.5 hPa ENE 3.1 km/h 3.1 km/h 69 % 0 mm
17:13 -9 °C -12.1 °C 34899.5 hPa WSW 6.3 km/h 6.3 km/h 70 % 0 mm
17:23 -9.1 °C -12.1 °C 34899.5 hPa SW 15 km/h 15 km/h 70 % 0 mm
17:28 -9.1 °C -12.1 °C 34899.5 hPa SW 15.6 km/h 15.6 km/h 70 % 0 mm
17:33 -9.2 °C -12.2 °C 34899.5 hPa WSW 17.9 km/h 17.9 km/h 70 % 0 mm
17:38 -9.3 °C -12.3 °C 34899.5 hPa SW 15 km/h 15 km/h 70 % 0 mm
17:43 -9.4 °C -12.3 °C 34899.5 hPa SW 17.9 km/h 17.9 km/h 71 % 0 mm
17:48 -9.4 °C -12.3 °C 34899.5 hPa WSW 15 km/h 15 km/h 71 % 0 mm
17:53 -9.6 °C -12.4 °C 34899.5 hPa SW 15 km/h 15 km/h 72 % 0 mm
17:58 -9.7 °C -12.5 °C 34899.5 hPa SW 9 km/h 9 km/h 72 % 0 mm
18:03 -9.8 °C -12.5 °C 34899.5 hPa WSW 6 km/h 6 km/h 73 % 0 mm
18:08 -9.9 °C -12.6 °C 34899.5 hPa WSW 6.8 km/h 6.8 km/h 73 % 0 mm
18:13 -10 °C -12.6 °C 34899.5 hPa WSW 6 km/h   74 % 0 mm
18:18 -10.1 °C -12.6 °C 34899.5 hPa SW 6.3 km/h 6.3 km/h 74 % 0 mm
18:23 -10.1 °C -12.6 °C 34946.9 hPa Calm     75 % 0 mm
18:28 -10.3 °C -12.7 °C 34946.9 hPa Calm     75 % 0 mm
18:33 -10.3 °C -12.7 °C 34946.9 hPa NW 3.1 km/h   75 % 0 mm
18:38 -10.4 °C -12.7 °C 34946.9 hPa SW 6 km/h 6 km/h 76 % 0 mm
18:43 -10.4 °C -12.7 °C 34946.9 hPa WSW 6.3 km/h 6.3 km/h 76 % 0 mm
18:48 -10.5 °C -12.7 °C 34946.9 hPa WSW 9 km/h 9 km/h 77 % 0 mm
18:53 -10.6 °C -12.7 °C 34946.9 hPa SW 6 km/h 6 km/h 77 % 0 mm
18:58 -10.6 °C -12.8 °C 34946.9 hPa SW 6 km/h 6 km/h 77 % 0 mm
19:03 -10.7 °C -12.7 °C 34946.9 hPa Calm     78 % 0 mm
19:08 -10.8 °C -12.8 °C 34946.9 hPa Calm     78 % 0 mm
19:13 -10.8 °C -12.9 °C 34946.9 hPa NNE 3.7 km/h 3.7 km/h 78 % 0 mm
19:18 -10.9 °C -12.9 °C 34946.9 hPa NE 6 km/h 6 km/h 78 % 0 mm
19:23 -11 °C -13.2 °C 34946.9 hPa NE 6 km/h 6 km/h 77 % 0 mm
19:28 -11.1 °C -13.4 °C 34946.9 hPa NNE 6 km/h 6 km/h 76 % 0 mm
19:33 -11.2 °C -13.4 °C 34946.9 hPa WNW 3.1 km/h 3.1 km/h 76 % 0 mm
19:38 -11.3 °C -13.6 °C 34946.9 hPa NNE 6 km/h   76 % 0 mm
19:43 -11.3 °C -13.6 °C 34946.9 hPa NNE 6.8 km/h 6.8 km/h 76 % 0 mm
19:48 -11.4 °C -13.7 °C 34946.9 hPa NE 6 km/h 6.3 km/h 76 % 0 mm
19:53 -11.4 °C -13.7 °C 34946.9 hPa WNW 6 km/h 6 km/h 76 % 0 mm
19:58 -11.4 °C -13.7 °C 34946.9 hPa NW 6.8 km/h 6.8 km/h 76 % 0 mm
20:03 -11.6 °C -13.7 °C 34946.9 hPa West 3.1 km/h   77 % 0 mm
20:08 -11.6 °C -13.8 °C 34946.9 hPa NE 3.1 km/h   77 % 0 mm
20:13 -11.7 °C -13.8 °C 34946.9 hPa Calm     77 % 0 mm
20:18 -11.7 °C -13.9 °C 34946.9 hPa Calm     77 % 0 mm
20:23 -11.8 °C -13.9 °C 34946.9 hPa Calm     77 % 0 mm
20:28 -11.9 °C -14.1 °C 34946.9 hPa NE 3.1 km/h   77 % 0 mm
20:33 -11.9 °C -14.1 °C 34946.9 hPa Calm     77 % 0 mm
20:38 -12 °C -14.1 °C 34946.9 hPa Calm     78 % 0 mm
20:43 -12.1 °C -14.1 °C 34946.9 hPa Calm     78 % 0 mm
20:48 -12.1 °C -14.1 °C 34946.9 hPa Calm     78 % 0 mm
20:53 -12.1 °C -14.1 °C 34899.5 hPa Calm     78 % 0 mm
20:58 -12.2 °C -14.2 °C 34899.5 hPa Calm     78 % 0 mm
21:03 -12.2 °C -14.3 °C 34899.5 hPa Calm     78 % 0 mm
21:08 -12.3 °C -14.2 °C 34899.5 hPa NNE 6 km/h 6 km/h 79 % 0 mm
21:13 -12.3 °C -14.2 °C 34899.5 hPa NNE 3.1 km/h 3.1 km/h 79 % 0 mm
21:18 -12.3 °C -14.2 °C 34899.5 hPa Calm     79 % 0 mm
21:23 -12.3 °C -14.3 °C 34899.5 hPa Calm     79 % 0 mm
21:28 -12.3 °C -14.3 °C 34899.5 hPa Calm     79 % 0 mm
21:33 -12.4 °C -14.3 °C 34899.5 hPa Calm     79 % 0 mm
21:38 -12.4 °C -14.4 °C 34899.5 hPa Calm     79 % 0 mm
21:43 -12.5 °C -14.4 °C 34899.5 hPa Calm     79 % 0 mm
21:48 -12.5 °C -14.4 °C 34899.5 hPa NNE 6 km/h 6 km/h 79 % 0 mm
21:53 -12.5 °C -14.4 °C 34946.9 hPa NNW 3.1 km/h 3.1 km/h 79 % 0 mm
21:58 -12.6 °C -14.5 °C 34946.9 hPa NNW 3.1 km/h   79 % 0 mm
22:03 -12.6 °C -14.5 °C 34946.9 hPa NNE 5.6 km/h 5.6 km/h 79 % 0 mm
22:08 -12.6 °C -14.6 °C 34899.5 hPa NNW 3.1 km/h 3.1 km/h 79 % 0 mm
22:13 -12.6 °C -14.6 °C 34899.5 hPa NW 3.1 km/h 3.1 km/h 79 % 0 mm
22:18 -12.7 °C -14.6 °C 34899.5 hPa NNW 3.1 km/h   79 % 0 mm
22:23 -12.7 °C -14.6 °C 34899.5 hPa WNW 3.1 km/h 3.1 km/h 79 % 0 mm
22:28 -12.7 °C -14.6 °C 34899.5 hPa North 4.2 km/h 4.2 km/h 79 % 0 mm
22:33 -12.8 °C -14.7 °C 34899.5 hPa West 3.1 km/h 3.1 km/h 79 % 0 mm
22:38 -12.8 °C -14.7 °C 34946.9 hPa WNW 3.1 km/h   80 % 0 mm
22:43 -12.9 °C -14.8 °C 34946.9 hPa WNW 6 km/h 6 km/h 79 % 0 mm
22:48 -12.9 °C -14.8 °C 34946.9 hPa Calm     80 % 0 mm
22:53 -13 °C -14.8 °C 34946.9 hPa Calm     80 % 0 mm
22:58 -13 °C -14.8 °C 34946.9 hPa NW 3.1 km/h   80 % 0 mm
Meteo Sesrovires
Elogis d' Weather Underground - 2 mb

Guio original per  Jim McMurry - jmcmurry@mwt.net Adaptat per a la plantilla per  Wim van der Kuil - Leuven-Template.eu

Trobareu la nostra informacio del temps tambe a:

Weather Underground

AWEKAS